Time;durP1;ratioP1;P1;durP2;ratioP2;P2;SDS_P1;SDS_P2;PMS_P1;PMS_P2;Temp;Humidity;BMP_temperature;BMP_pressure;BME280_temperature;BME280_humidity;BME280_pressure;Samples;Min_cycle;Max_cycle;Signal;HPM_P1;HPM_P2
2021/07/15 00:01:05;;;;;;;;;;;;;;;17.49;69.24;99553.50;5033097;28;798;-62
2021/07/15 00:03:31;;;;;;;;;;;;;;;17.61;68.84;99547.06;5032973;28;837;-62
2021/07/15 00:05:57;;;;;;;;;;;;;;;17.84;67.57;99556.22;5032984;28;826;-62
2021/07/15 00:08:26;;;;;;;;;;;;;;;18.01;66.38;99546.34;5032918;28;829;-62
2021/07/15 00:10:55;;;;;;;;;;;;;;;17.87;66.63;99561.66;5033067;28;798;-62
2021/07/15 00:13:23;;;;;;;;;;;;;;;17.65;67.29;99550.50;5033073;28;927;-62
2021/07/15 00:15:51;;;;;;;;;;;;;;;17.46;67.89;99552.41;5032478;28;1977;-62
2021/07/15 00:18:21;;;;;;;;;;;;;;;17.31;68.83;99556.97;5032679;28;1020;-62
2021/07/15 00:20:48;;;;;;;;;;;;;;;17.18;69.17;99554.22;5032625;28;795;-62
2021/07/15 00:23:16;;;;;;;;;;;;;;;17.12;69.78;99554.00;5032557;28;834;-62
2021/07/15 00:25:43;;;;;;;;;;;;;;;17.22;69.19;99549.28;5032433;28;827;-62
2021/07/15 00:28:10;;;;;;;;;;;;;;;17.40;68.12;99550.66;5032472;28;834;-62
2021/07/15 00:30:37;;;;;;;;;;;;;;;17.43;67.69;99553.31;5032471;28;839;-62
2021/07/15 00:33:05;;;;;;;;;;;;;;;17.53;67.23;99546.53;5032418;28;802;-62
2021/07/15 00:35:32;;;;;;;;;;;;;;;17.60;66.95;99548.28;5032228;28;1894;-62
2021/07/15 00:37:58;;;;;;;;;;;;;;;17.62;67.14;99545.03;5032423;28;836;-62
2021/07/15 00:40:25;;;;;;;;;;;;;;;17.62;67.34;99540.22;5032555;28;896;-62
2021/07/15 00:42:51;;;;;;;;;;;;;;;17.79;67.47;99540.78;5032211;28;881;-62
2021/07/15 00:45:18;;;;;;;;;;;;;;;17.94;67.05;99541.03;5032227;28;1038;-62
2021/07/15 00:47:45;;;;;;;;;;;;;;;17.84;67.68;99542.25;5032112;28;857;-61
2021/07/15 00:50:13;;;;;;;;;;;;;;;17.54;68.77;99539.72;5032292;28;854;-62
2021/07/15 00:52:40;;;;;;;;;;;;;;;17.43;69.27;99541.34;5032282;28;823;-62
2021/07/15 00:55:14;;;;;;;;;;;;;;;17.39;69.51;99532.31;5032004;28;1043;-62
2021/07/15 00:57:40;;;;;;;;;;;;;;;17.40;69.68;99537.47;5032056;28;917;-62
2021/07/15 01:00:09;;;;;;;;;;;;;;;17.32;70.08;99536.94;5031985;28;881;-62
2021/07/15 01:02:36;;;;;;;;;;;;;;;17.24;70.80;99526.47;5032007;28;858;-62
2021/07/15 01:05:08;;;;;;;;;;;;;;;17.17;71.45;99524.72;5032188;28;893;-62
2021/07/15 01:07:35;;;;;;;;;;;;;;;17.11;72.44;99521.75;5031885;28;873;-62
2021/07/15 01:10:02;;;;;;;;;;;;;;;17.04;72.59;99524.00;5031727;28;913;-63
2021/07/15 01:12:37;;;;;;;;;;;;;;;17.06;73.10;99519.53;5031798;28;862;-62
2021/07/15 01:15:09;;;;;;;;;;;;;;;17.08;72.99;99527.47;5031448;28;1234;-62
2021/07/15 01:17:49;;;;;;;;;;;;;;;17.14;72.75;99532.00;5031578;28;1912;-62
2021/07/15 01:20:15;;;;;;;;;;;;;;;17.26;73.00;99527.59;5031871;28;818;-63
2021/07/15 01:22:45;;;;;;;;;;;;;;;17.39;73.05;99524.75;5031127;28;845;-62
2021/07/15 01:25:30;;;;;;;;;;;;;;;17.41;72.71;99529.84;5031626;28;826;-62
2021/07/15 01:27:56;;;;;;;;;;;;;;;17.44;71.73;99529.72;5031639;28;873;-62
2021/07/15 01:30:42;;;;;;;;;;;;;;;17.47;69.25;99523.22;5031470;28;822;-62
2021/07/15 01:33:20;;;;;;;;;;;;;;;17.51;68.09;99531.47;5031236;28;1176;-64
2021/07/15 01:35:48;;;;;;;;;;;;;;;17.53;68.77;99529.00;5031355;28;1886;-62
2021/07/15 01:38:18;;;;;;;;;;;;;;;17.48;70.07;99537.97;5030104;28;1291;-62
2021/07/15 01:40:57;;;;;;;;;;;;;;;17.38;71.34;99525.97;5031748;28;843;-62
2021/07/15 01:43:53;;;;;;;;;;;;;;;17.35;71.99;99535.25;5031437;28;886;-62
2021/07/15 01:46:20;;;;;;;;;;;;;;;17.34;72.09;99528.09;5026826;28;1816;-62
2021/07/15 01:48:47;;;;;;;;;;;;;;;17.35;73.34;99530.44;5031422;28;787;-62
2021/07/15 01:51:14;;;;;;;;;;;;;;;17.38;73.54;99525.19;5031566;28;1240;-62
2021/07/15 01:53:41;;;;;;;;;;;;;;;17.32;73.41;99527.78;5031647;28;786;-62
2021/07/15 01:56:09;;;;;;;;;;;;;;;17.30;72.91;99533.84;5031228;28;1945;-62
2021/07/15 01:58:36;;;;;;;;;;;;;;;17.29;72.37;99537.06;5047123;28;1332;-62
2021/07/15 02:01:04;;;;;;;;;;;;;;;17.31;71.42;99538.19;5031526;28;830;-62
2021/07/15 02:03:31;;;;;;;;;;;;;;;17.16;71.49;99509.22;5031455;28;790;-63
2021/07/15 02:06:00;;;;;;;;;;;;;;;17.42;71.88;99539.81;5031302;28;949;-62
2021/07/15 02:08:27;;;;;;;;;;;;;;;17.34;72.54;99533.69;5031195;28;838;-62
2021/07/15 02:10:54;;;;;;;;;;;;;;;17.29;74.44;99534.28;5031179;28;827;-62
2021/07/15 02:13:22;;;;;;;;;;;;;;;17.26;75.27;99540.75;5031326;28;922;-62
2021/07/15 02:15:50;;;;;;;;;;;;;;;17.25;76.22;99533.63;5030846;28;1902;-63
2021/07/15 02:18:18;;;;;;;;;;;;;;;17.24;76.81;99534.84;5031231;28;838;-63
2021/07/15 02:20:47;;;;;;;;;;;;;;;17.24;77.74;99538.44;5031132;28;802;-63
2021/07/15 02:23:14;;;;;;;;;;;;;;;17.23;78.11;99534.09;5030981;28;890;-63
2021/07/15 02:25:42;;;;;;;;;;;;;;;17.20;78.48;99540.59;5031090;28;858;-62
2021/07/15 02:28:11;;;;;;;;;;;;;;;17.15;78.65;99532.78;5031099;28;822;-62
2021/07/15 02:30:37;;;;;;;;;;;;;;;17.13;78.58;99535.25;5030970;28;878;-64
2021/07/15 02:33:08;;;;;;;;;;;;;;;17.13;78.83;99533.25;5031068;28;827;-63
2021/07/15 02:35:38;;;;;;;;;;;;;;;17.12;79.42;99530.91;5032617;28;1898;-63
2021/07/15 02:38:07;;;;;;;;;;;;;;;17.10;79.70;99536.94;5034763;28;831;-63
2021/07/15 02:40:34;;;;;;;;;;;;;;;17.08;79.42;99533.03;5034529;28;811;-63
2021/07/15 02:43:01;;;;;;;;;;;;;;;17.07;79.20;99534.25;5034489;28;819;-64
2021/07/15 02:45:27;;;;;;;;;;;;;;;17.07;79.43;99540.66;5034438;28;814;-63
2021/07/15 02:47:54;;;;;;;;;;;;;;;17.05;80.15;99539.56;5034384;28;830;-63
2021/07/15 02:50:21;;;;;;;;;;;;;;;16.96;80.50;99537.44;5034313;28;818;-64
2021/07/15 02:52:49;;;;;;;;;;;;;;;16.91;80.09;99533.22;5034204;28;823;-63
2021/07/15 02:55:15;;;;;;;;;;;;;;;16.90;79.83;99544.84;5034260;28;810;-63
2021/07/15 02:57:47;;;;;;;;;;;;;;;16.89;79.79;99543.28;5034115;28;1977;-63
2021/07/15 03:00:18;;;;;;;;;;;;;;;16.88;79.73;99544.53;5034142;28;864;-62
2021/07/15 03:03:03;;;;;;;;;;;;;;;16.81;79.78;99536.38;5034055;28;894;-62
2021/07/15 03:05:55;;;;;;;;;;;;;;;16.72;79.54;99532.25;5034030;28;866;-62
2021/07/15 03:08:26;;;;;;;;;;;;;;;16.70;79.10;99534.69;5032984;28;1136;-62
2021/07/15 03:10:57;;;;;;;;;;;;;;;16.68;78.30;99531.59;5033971;28;839;-62
2021/07/15 03:13:25;;;;;;;;;;;;;;;16.68;77.67;99533.59;5034155;28;1013;-62
2021/07/15 03:15:51;;;;;;;;;;;;;;;16.72;77.40;99534.25;5033637;28;1902;-62
2021/07/15 03:18:19;;;;;;;;;;;;;;;16.74;77.67;99529.00;5033905;28;795;-62
2021/07/15 03:20:46;;;;;;;;;;;;;;;16.76;77.87;99532.13;5033838;28;902;-62
2021/07/15 03:23:15;;;;;;;;;;;;;;;16.83;77.94;99533.91;5033706;28;803;-62
2021/07/15 03:25:46;;;;;;;;;;;;;;;16.84;77.97;99521.53;5033716;28;814;-62
2021/07/15 03:28:14;;;;;;;;;;;;;;;16.86;77.84;99525.44;5033928;28;858;-62
2021/07/15 03:30:41;;;;;;;;;;;;;;;16.92;77.83;99525.66;5033670;28;857;-63
2021/07/15 03:33:09;;;;;;;;;;;;;;;17.07;77.47;99529.47;5033537;28;802;-63
2021/07/15 03:35:36;;;;;;;;;;;;;;;17.22;76.77;99529.75;5033486;28;1914;-62
2021/07/15 03:38:04;;;;;;;;;;;;;;;17.44;75.92;99534.53;5033698;28;865;-63
2021/07/15 03:40:31;;;;;;;;;;;;;;;17.66;74.77;99535.28;5033474;28;893;-62
2021/07/15 03:42:58;;;;;;;;;;;;;;;17.92;73.88;99532.31;5033449;28;849;-62
2021/07/15 03:45:26;;;;;;;;;;;;;;;18.20;72.24;99536.00;5033154;28;882;-63
2021/07/15 03:47:54;;;;;;;;;;;;;;;18.54;70.98;99542.59;5033202;28;897;-62
2021/07/15 03:50:25;;;;;;;;;;;;;;;18.84;69.67;99542.97;5033189;28;858;-62
2021/07/15 03:52:53;;;;;;;;;;;;;;;18.93;68.44;99552.19;5033154;28;858;-63
2021/07/15 03:55:24;;;;;;;;;;;;;;;18.84;68.72;99551.38;5033203;28;1002;-62
2021/07/15 03:57:50;;;;;;;;;;;;;;;18.70;68.99;99550.72;5033069;28;869;-62
2021/07/15 04:00:20;;;;;;;;;;;;;;;18.59;69.40;99558.03;5033177;28;881;-62
2021/07/15 04:02:47;;;;;;;;;;;;;;;18.50;69.34;99553.19;5033014;28;811;-63
2021/07/15 04:05:14;;;;;;;;;;;;;;;18.44;69.51;99550.22;5033197;28;823;-63
2021/07/15 04:07:41;;;;;;;;;;;;;;;18.48;69.25;99550.84;5033132;28;811;-63
2021/07/15 04:10:11;;;;;;;;;;;;;;;18.63;68.59;99556.63;5032893;28;882;-62
2021/07/15 04:12:39;;;;;;;;;;;;;;;18.86;67.83;99555.28;5032805;28;1041;-62
2021/07/15 04:15:11;;;;;;;;;;;;;;;18.97;67.58;99552.81;5032931;28;1433;-62
2021/07/15 04:17:53;;;;;;;;;;;;;;;19.09;67.66;99558.72;5032666;28;1914;-63
2021/07/15 04:20:21;;;;;;;;;;;;;;;19.22;67.81;99561.34;5032948;28;740;-62
2021/07/15 04:22:50;;;;;;;;;;;;;;;19.36;67.95;99555.13;5033114;28;858;-62
2021/07/15 04:25:19;;;;;;;;;;;;;;;19.51;67.79;99549.66;5032627;28;878;-63
2021/07/15 04:27:48;;;;;;;;;;;;;;;19.71;67.57;99551.94;5032535;28;802;-62
2021/07/15 04:30:15;;;;;;;;;;;;;;;20.09;67.19;99550.56;5032391;28;888;-62
2021/07/15 04:32:42;;;;;;;;;;;;;;;20.48;66.04;99547.88;5032470;28;823;-62
2021/07/15 04:35:10;;;;;;;;;;;;;;;20.93;65.25;99554.47;5032341;28;795;-62
2021/07/15 04:37:37;;;;;;;;;;;;;;;21.47;63.93;99554.50;5032306;28;1886;-62
2021/07/15 04:40:06;;;;;;;;;;;;;;;21.86;62.40;99560.00;5032281;28;894;-63
2021/07/15 04:42:33;;;;;;;;;;;;;;;21.98;61.85;99556.13;5031096;28;1302;-63
2021/07/15 04:45:00;;;;;;;;;;;;;;;21.79;61.89;99553.53;5032251;28;810;-63
2021/07/15 04:47:28;;;;;;;;;;;;;;;21.59;62.93;99567.47;5032352;28;890;-63
2021/07/15 04:49:54;;;;;;;;;;;;;;;21.46;63.42;99569.81;5032027;28;878;-63
2021/07/15 04:52:22;;;;;;;;;;;;;;;21.41;63.92;99569.22;5032086;28;886;-62
2021/07/15 04:54:50;;;;;;;;;;;;;;;21.45;63.86;99574.66;5032086;28;787;-63
2021/07/15 04:57:17;;;;;;;;;;;;;;;21.50;62.95;99582.41;5031453;28;1890;-63
2021/07/15 04:59:44;;;;;;;;;;;;;;;21.61;62.87;99581.81;5031791;28;866;-62
2021/07/15 05:02:11;;;;;;;;;;;;;;;21.89;62.65;99578.72;5031952;28;886;-63
2021/07/15 05:04:38;;;;;;;;;;;;;;;22.23;62.12;99568.81;5031954;28;842;-63
2021/07/15 05:15:03;;;;;;;;;;;;;;;25.05;54.68;99551.72;5092976;22;1523;-62
2021/07/15 05:17:31;;;;;;;;;;;;;;;25.79;52.67;99544.88;5051683;28;1910;-62
2021/07/15 05:19:59;;;;;;;;;;;;;;;26.47;50.85;99548.44;5051787;28;1163;-62
2021/07/15 05:22:26;;;;;;;;;;;;;;;27.24;48.61;99544.28;5051675;28;849;-62
2021/07/15 05:24:53;;;;;;;;;;;;;;;27.97;46.98;99540.16;5052163;28;779;-62
2021/07/15 05:27:20;;;;;;;;;;;;;;;28.49;45.65;99542.00;5051626;28;854;-62
2021/07/15 05:29:47;;;;;;;;;;;;;;;28.86;45.26;99540.50;5052099;28;822;-62
2021/07/15 05:32:14;;;;;;;;;;;;;;;29.06;45.41;99540.00;5051726;28;822;-62
2021/07/15 05:34:41;;;;;;;;;;;;;;;29.57;45.16;99538.50;5051775;28;833;-61
2021/07/15 05:37:08;;;;;;;;;;;;;;;30.22;43.31;99536.38;5051591;28;1918;-62
2021/07/15 05:39:34;;;;;;;;;;;;;;;31.13;41.94;99538.97;5051988;28;833;-62
2021/07/15 05:42:01;;;;;;;;;;;;;;;32.02;39.49;99540.28;5051384;28;897;-62
2021/07/15 05:44:27;;;;;;;;;;;;;;;32.84;38.13;99539.84;5051241;28;841;-62
2021/07/15 05:46:54;;;;;;;;;;;;;;;33.61;37.06;99543.00;5051358;28;869;-62
2021/07/15 05:49:20;;;;;;;;;;;;;;;34.12;36.30;99547.84;5051284;28;873;-62
2021/07/15 05:51:48;;;;;;;;;;;;;;;34.60;35.56;99538.56;5051256;28;803;-62
2021/07/15 05:54:16;;;;;;;;;;;;;;;34.73;35.21;99541.22;5051211;28;870;-62
2021/07/15 05:56:42;;;;;;;;;;;;;;;34.68;35.09;99545.84;5051270;28;1889;-62
2021/07/15 05:59:09;;;;;;;;;;;;;;;33.99;34.63;99545.13;5051167;28;850;-62
2021/07/15 06:01:36;;;;;;;;;;;;;;;33.62;36.11;99553.13;5051155;28;817;-62
2021/07/15 06:04:02;;;;;;;;;;;;;;;33.76;37.04;99554.50;5051446;28;842;-62
2021/07/15 06:06:29;;;;;;;;;;;;;;;34.28;36.16;99545.72;5051191;28;834;-62
2021/07/15 06:08:56;;;;;;;;;;;;;;;34.27;35.83;99544.16;5051767;28;940;-61
2021/07/15 06:11:21;;;;;;;;;;;;;;;34.46;34.94;99547.41;5054996;28;896;-61
2021/07/15 06:13:48;;;;;;;;;;;;;;;34.95;34.61;99548.22;5054766;28;1379;-61
2021/07/15 06:16:15;;;;;;;;;;;;;;;35.55;33.79;99545.66;5054878;28;1914;-61
2021/07/15 06:18:42;;;;;;;;;;;;;;;36.41;32.60;99543.63;5054857;28;873;-61
2021/07/15 06:21:09;;;;;;;;;;;;;;;36.97;30.43;99543.94;5054855;28;913;-61
2021/07/15 06:23:35;;;;;;;;;;;;;;;37.53;29.98;99547.03;5054784;28;818;-61
2021/07/15 06:26:02;;;;;;;;;;;;;;;38.13;28.56;99543.81;5054909;28;798;-61
2021/07/15 06:28:29;;;;;;;;;;;;;;;38.52;27.07;99546.03;5054679;28;810;-61
2021/07/15 06:30:55;;;;;;;;;;;;;;;38.51;26.86;99547.38;5054694;28;878;-61
2021/07/15 06:33:22;;;;;;;;;;;;;;;38.25;24.60;99541.09;5054665;28;901;-61
2021/07/15 06:35:51;;;;;;;;;;;;;;;38.05;24.08;99542.44;5054482;28;1969;-61
2021/07/15 06:38:18;;;;;;;;;;;;;;;38.31;24.32;99537.91;5054516;28;905;-61
2021/07/15 06:40:46;;;;;;;;;;;;;;;38.16;23.84;99533.94;5054487;28;794;-62
2021/07/15 06:43:12;;;;;;;;;;;;;;;37.78;23.72;99525.91;5054322;28;838;-61
2021/07/15 06:45:39;;;;;;;;;;;;;;;37.32;23.69;99523.72;5054359;28;937;-62
2021/07/15 06:48:05;;;;;;;;;;;;;;;36.70;23.70;99524.53;5054362;28;866;-62
2021/07/15 06:50:32;;;;;;;;;;;;;;;36.24;24.37;99519.22;5054189;28;877;-62
2021/07/15 06:53:00;;;;;;;;;;;;;;;36.79;25.12;99515.19;5036415;28;1481;-62
2021/07/15 06:55:27;;;;;;;;;;;;;;;36.84;22.92;99515.53;5054204;28;885;-62
2021/07/15 06:57:53;;;;;;;;;;;;;;;36.88;23.60;99515.84;5054133;28;1890;-62
2021/07/15 07:00:20;;;;;;;;;;;;;;;37.26;23.92;99497.31;5054089;28;818;-61
2021/07/15 07:02:47;;;;;;;;;;;;;;;37.54;24.75;99508.22;5054032;28;874;-62
2021/07/15 07:05:14;;;;;;;;;;;;;;;37.89;24.23;99501.50;5053947;28;874;-61
2021/07/15 07:07:41;;;;;;;;;;;;;;;37.89;24.23;99499.38;5054060;28;880;-61
2021/07/15 07:10:09;;;;;;;;;;;;;;;37.65;23.74;99511.91;5053983;28;845;-62
2021/07/15 07:12:36;;;;;;;;;;;;;;;37.68;23.58;99502.06;5053662;28;1045;-62
2021/07/15 07:15:04;;;;;;;;;;;;;;;38.18;23.88;99507.38;5053539;28;1210;-61
2021/07/15 07:17:31;;;;;;;;;;;;;;;38.60;23.64;99494.66;5054006;28;1914;-61
2021/07/15 07:19:57;;;;;;;;;;;;;;;38.53;22.54;99502.09;5053874;28;818;-62
2021/07/15 07:22:24;;;;;;;;;;;;;;;37.78;23.54;99506.50;5053062;28;814;-62
2021/07/15 07:24:49;;;;;;;;;;;;;;;37.69;23.49;99509.34;5053586;28;850;-62
2021/07/15 07:27:16;;;;;;;;;;;;;;;37.87;23.40;99510.75;5053663;28;877;-62
2021/07/15 07:29:43;;;;;;;;;;;;;;;37.95;23.22;99507.75;5053686;28;834;-62
2021/07/15 07:32:09;;;;;;;;;;;;;;;38.31;22.65;99503.28;5053475;28;880;-61
2021/07/15 07:34:36;;;;;;;;;;;;;;;38.40;21.02;99505.41;5053466;28;857;-62
2021/07/15 07:37:03;;;;;;;;;;;;;;;38.23;21.86;99509.19;5053694;28;1949;-61
2021/07/15 07:39:30;;;;;;;;;;;;;;;38.54;22.36;99503.63;5053374;28;834;-61
2021/07/15 07:41:56;;;;;;;;;;;;;;;38.92;21.76;99507.06;5053315;28;833;-61
2021/07/15 07:44:23;;;;;;;;;;;;;;;38.99;21.94;99503.31;5053275;28;858;-61
2021/07/15 07:46:50;;;;;;;;;;;;;;;39.17;21.62;99515.41;5053154;28;865;-61
2021/07/15 07:49:17;;;;;;;;;;;;;;;39.17;21.34;99507.50;5053208;28;845;-61
2021/07/15 07:51:44;;;;;;;;;;;;;;;39.10;21.74;99508.44;5053101;28;1023;-61
2021/07/15 07:54:11;;;;;;;;;;;;;;;39.20;22.17;99506.28;5053188;28;862;-61
2021/07/15 07:56:36;;;;;;;;;;;;;;;39.12;21.37;99507.84;5052970;28;1898;-62
2021/07/15 07:59:03;;;;;;;;;;;;;;;38.83;21.18;99502.84;5052996;28;885;-62
2021/07/15 08:01:30;;;;;;;;;;;;;;;38.61;21.60;99504.84;5052930;28;790;-62
2021/07/15 08:03:57;;;;;;;;;;;;;;;38.41;22.51;99512.72;5052979;28;798;-62
2021/07/15 08:06:23;;;;;;;;;;;;;;;38.49;21.55;99506.78;5052733;28;858;-62
2021/07/15 08:08:51;;;;;;;;;;;;;;;38.30;21.74;99508.31;5052752;28;913;-62
2021/07/15 08:11:20;;;;;;;;;;;;;;;38.33;21.35;99509.22;5052678;28;862;-62
2021/07/15 08:13:47;;;;;;;;;;;;;;;38.61;22.63;99501.94;5052391;28;1418;-62
2021/07/15 08:16:13;;;;;;;;;;;;;;;38.82;21.58;99500.56;5052881;28;1977;-61
2021/07/15 08:18:40;;;;;;;;;;;;;;;38.59;21.38;99504.69;5052698;28;861;-62
2021/07/15 08:21:06;;;;;;;;;;;;;;;38.67;22.07;99493.00;5034574;28;741;-61
2021/07/15 08:23:33;;;;;;;;;;;;;;;39.11;21.79;99498.38;5052574;28;553;-62
2021/07/15 08:26:00;;;;;;;;;;;;;;;39.20;21.10;99491.84;5034613;28;1318;-61
2021/07/15 08:28:27;;;;;;;;;;;;;;;39.07;20.67;99494.44;5052342;28;1231;-62
2021/07/15 08:30:54;;;;;;;;;;;;;;;38.64;21.02;99489.16;5052430;28;865;-62
2021/07/15 08:33:21;;;;;;;;;;;;;;;38.52;21.46;99494.06;5051362;28;846;-61
2021/07/15 08:35:47;;;;;;;;;;;;;;;39.11;20.73;99488.97;5052217;28;1907;-62
2021/07/15 08:38:16;;;;;;;;;;;;;;;39.35;21.21;99487.09;5052313;28;822;-62
2021/07/15 08:40:43;;;;;;;;;;;;;;;39.49;21.42;99488.09;5034351;28;1169;-62
2021/07/15 08:43:10;;;;;;;;;;;;;;;39.48;21.21;99483.69;5052132;28;811;-62
2021/07/15 08:45:37;;;;;;;;;;;;;;;39.46;21.21;99480.66;5052127;28;858;-62
2021/07/15 08:48:06;;;;;;;;;;;;;;;38.95;20.63;99485.69;5052081;28;857;-62
2021/07/15 08:50:32;;;;;;;;;;;;;;;38.84;20.84;99486.28;5052038;28;791;-62
2021/07/15 08:52:59;;;;;;;;;;;;;;;38.97;20.42;99486.56;5052232;28;857;-62
2021/07/15 08:58:17;;;;;;;;;;;;;;;38.62;20.86;99491.91;5051981;28;715;-62
2021/07/15 09:00:44;;;;;;;;;;;;;;;38.29;21.65;99498.13;5051861;28;837;-62
2021/07/15 09:03:12;;;;;;;;;;;;;;;38.03;22.38;99496.88;5051893;28;869;-62
2021/07/15 09:05:40;;;;;;;;;;;;;;;37.94;22.73;99495.47;5051737;28;849;-62
2021/07/15 09:08:07;;;;;;;;;;;;;;;38.06;23.22;99489.13;5051835;28;822;-62
2021/07/15 09:10:34;;;;;;;;;;;;;;;37.83;22.99;99492.38;5051638;28;810;-63
2021/07/15 09:13:01;;;;;;;;;;;;;;;37.65;22.35;99485.97;5051968;28;910;-63
2021/07/15 09:15:29;;;;;;;;;;;;;;;37.20;22.92;99480.31;5051435;28;1176;-62
2021/07/15 09:17:55;;;;;;;;;;;;;;;37.13;24.12;99484.81;5051556;28;1942;-62
2021/07/15 09:20:21;;;;;;;;;;;;;;;37.38;22.47;99478.88;5051553;28;877;-62
2021/07/15 09:22:54;;;;;;;;;;;;;;;37.46;23.05;99475.84;5051822;28;842;-62
2021/07/15 09:25:21;;;;;;;;;;;;;;;37.66;22.70;99479.63;5051814;28;783;-61
2021/07/15 09:27:49;;;;;;;;;;;;;;;37.51;23.96;99479.81;5051763;28;896;-62
2021/07/15 09:30:16;;;;;;;;;;;;;;;37.30;23.85;99475.34;5051655;28;817;-62
2021/07/15 09:32:56;;;;;;;;;;;;;;;37.37;25.17;99471.56;5051777;28;876;-62
2021/07/15 09:35:32;;;;;;;;;;;;;;;37.86;23.27;99474.66;5051451;28;814;-61
2021/07/15 09:38:12;;;;;;;;;;;;;;;37.66;22.25;99470.19;5051295;28;1953;-62
2021/07/15 09:40:56;;;;;;;;;;;;;;;37.26;23.91;99462.75;5051269;28;842;-62
2021/07/15 09:43:27;;;;;;;;;;;;;;;37.07;24.63;99463.38;5051423;28;878;-62
2021/07/15 09:45:58;;;;;;;;;;;;;;;36.99;24.25;99457.72;5055459;28;996;-62
2021/07/15 09:48:25;;;;;;;;;;;;;;;36.03;25.09;99464.19;5055558;28;791;-62
2021/07/15 09:50:54;;;;;;;;;;;;;;;35.65;24.97;99459.56;5055474;28;889;-61
2021/07/15 09:53:24;;;;;;;;;;;;;;;35.77;26.72;99457.72;5055716;28;853;-61
2021/07/15 09:56:01;;;;;;;;;;;;;;;35.91;26.81;99456.06;5055306;28;1934;-62
2021/07/15 09:58:37;;;;;;;;;;;;;;;35.90;25.01;99456.66;5055232;28;1170;-61
2021/07/15 10:01:05;;;;;;;;;;;;;;;35.64;25.45;99460.91;5055593;28;806;-63
2021/07/15 10:03:35;;;;;;;;;;;;;;;35.34;26.10;99454.03;5055138;28;854;-62
2021/07/15 10:06:03;;;;;;;;;;;;;;;35.08;26.25;99456.09;5055215;28;814;-62
2021/07/15 10:08:37;;;;;;;;;;;;;;;34.81;26.14;99449.38;5054897;28;906;-61
2021/07/15 10:11:17;;;;;;;;;;;;;;;34.49;28.06;99453.69;5055077;28;823;-62
2021/07/15 10:13:46;;;;;;;;;;;;;;;34.47;26.08;99448.50;5054950;28;1311;-62
2021/07/15 10:16:13;;;;;;;;;;;;;;;34.26;28.56;99448.00;5054902;28;1969;-62
2021/07/15 10:18:53;;;;;;;;;;;;;;;34.22;27.83;99450.50;5054893;28;866;-62
2021/07/15 10:21:30;;;;;;;;;;;;;;;34.20;29.27;99439.59;5054939;28;888;-62
2021/07/15 10:23:56;;;;;;;;;;;;;;;34.12;28.42;99436.03;5054831;28;894;-62
2021/07/15 10:26:23;;;;;;;;;;;;;;;33.77;29.82;99432.78;5054774;28;783;-62
2021/07/15 10:28:51;;;;;;;;;;;;;;;33.86;29.60;99434.31;5054650;28;969;-62
2021/07/15 10:31:19;;;;;;;;;;;;;;;34.00;29.30;99432.00;5054984;28;909;-62
2021/07/15 10:33:46;;;;;;;;;;;;;;;34.02;29.01;99427.22;5054639;28;873;-62
2021/07/15 10:36:14;;;;;;;;;;;;;;;34.11;29.82;99432.34;5036594;28;1949;-62
2021/07/15 10:38:42;;;;;;;;;;;;;;;34.33;30.05;99430.78;5054443;28;794;-62
2021/07/15 10:41:09;;;;;;;;;;;;;;;34.29;29.03;99424.69;5054485;28;840;-62
2021/07/15 10:43:37;;;;;;;;;;;;;;;34.33;29.81;99425.06;5054438;28;854;-62
2021/07/15 10:46:04;;;;;;;;;;;;;;;34.44;29.10;99420.22;5054407;28;857;-62
2021/07/15 10:48:32;;;;;;;;;;;;;;;34.46;29.19;99414.66;5054249;28;961;-62
2021/07/15 10:51:00;;;;;;;;;;;;;;;34.63;29.64;99422.63;5054354;28;786;-62
2021/07/15 10:53:28;;;;;;;;;;;;;;;34.58;31.90;99421.50;5054233;28;935;-62
2021/07/15 10:55:54;;;;;;;;;;;;;;;34.49;30.84;99419.25;5053092;28;1886;-62
2021/07/15 10:58:57;;;;;;;;;;;;;;;34.38;30.44;99422.56;5054046;28;870;-63
2021/07/15 11:01:51;;;;;;;;;;;;;;;34.17;31.45;99412.09;4973200;28;1221;-62
2021/07/15 11:04:21;;;;;;;;;;;;;;;34.19;32.48;99405.78;4957118;28;1166;-63
2021/07/15 11:06:53;;;;;;;;;;;;;;;34.33;32.27;99413.59;4973211;28;925;-62
2021/07/15 11:09:33;;;;;;;;;;;;;;;34.45;32.86;99405.31;4973146;28;1065;-63
2021/07/15 11:12:01;;;;;;;;;;;;;;;34.41;30.69;99412.78;4972985;28;899;-63
2021/07/15 11:14:44;;;;;;;;;;;;;;;34.49;30.66;99416.38;4972824;28;1361;-63
2021/07/15 11:17:30;;;;;;;;;;;;;;;34.59;31.18;99405.81;4972779;28;1911;-62
2021/07/15 11:19:58;;;;;;;;;;;;;;;34.73;33.95;99403.47;4972920;28;966;-62
2021/07/15 11:22:33;;;;;;;;;;;;;;;34.74;32.67;99405.75;4972847;28;1135;-63
2021/07/15 11:25:01;;;;;;;;;;;;;;;34.44;32.73;99406.66;4972885;28;850;-63
2021/07/15 11:27:31;;;;;;;;;;;;;;;34.69;33.82;99403.09;4972818;28;875;-63
2021/07/15 11:29:59;;;;;;;;;;;;;;;34.86;33.64;99393.81;4972842;28;1175;-63
2021/07/15 11:32:27;;;;;;;;;;;;;;;34.97;33.76;99401.97;4972805;28;941;-62
2021/07/15 11:34:55;;;;;;;;;;;;;;;34.77;32.54;99387.38;4985888;28;911;-62
2021/07/15 11:37:36;;;;;;;;;;;;;;;34.67;33.38;99391.44;5013644;28;1953;-63
2021/07/15 11:40:26;;;;;;;;;;;;;;;34.66;32.65;99387.81;5013640;28;878;-62
2021/07/15 11:42:52;;;;;;;;;;;;;;;34.67;31.91;99397.19;5013585;28;1025;-62
2021/07/15 11:45:20;;;;;;;;;;;;;;;34.64;32.49;99389.75;5013638;28;819;-60
2021/07/15 11:47:51;;;;;;;;;;;;;;;34.73;30.94;99392.75;5013554;28;1241;-62
2021/07/15 11:50:39;;;;;;;;;;;;;;;34.96;31.93;99384.00;5013603;28;882;-64
2021/07/15 11:53:18;;;;;;;;;;;;;;;35.20;31.93;99381.00;5012132;28;839;-60
2021/07/15 11:55:46;;;;;;;;;;;;;;;35.06;31.00;99383.34;5013282;28;1882;-61
2021/07/15 11:58:31;;;;;;;;;;;;;;;35.11;33.23;99383.13;5013345;28;795;-61
2021/07/15 12:01:16;;;;;;;;;;;;;;;35.04;31.50;99386.81;5013292;28;811;-60
2021/07/15 12:03:58;;;;;;;;;;;;;;;34.97;33.02;99381.88;5013136;28;870;-61
2021/07/15 12:06:25;;;;;;;;;;;;;;;35.07;33.00;99376.28;5013045;28;823;-61
2021/07/15 12:08:52;;;;;;;;;;;;;;;35.39;31.86;99381.22;5013123;28;818;-61
2021/07/15 12:11:22;;;;;;;;;;;;;;;35.66;30.77;99374.88;5013393;28;810;-61
2021/07/15 12:13:52;;;;;;;;;;;;;;;35.77;30.00;99375.13;5019208;28;1202;-60
2021/07/15 12:16:20;;;;;;;;;;;;;;;35.70;29.26;99372.31;5052706;28;1918;-61
2021/07/15 12:18:47;;;;;;;;;;;;;;;35.59;30.82;99376.41;5052565;28;862;-61
2021/07/15 12:21:16;;;;;;;;;;;;;;;35.51;30.12;99370.75;5052532;28;934;-60
2021/07/15 12:23:44;;;;;;;;;;;;;;;35.45;30.70;99370.25;5052534;28;886;-61
2021/07/15 12:26:12;;;;;;;;;;;;;;;35.58;31.32;99372.78;5052470;28;885;-60
2021/07/15 12:28:44;;;;;;;;;;;;;;;35.87;31.01;99372.34;5052409;28;941;-61
2021/07/15 12:31:13;;;;;;;;;;;;;;;36.07;31.48;99367.53;5052521;28;822;-61
2021/07/15 12:33:40;;;;;;;;;;;;;;;36.17;29.87;99362.63;5052541;28;872;-60
2021/07/15 12:36:25;;;;;;;;;;;;;;;36.38;30.67;99367.94;5052356;28;1890;-61
2021/07/15 12:39:02;;;;;;;;;;;;;;;36.54;29.40;99370.59;5052297;28;911;-61
2021/07/15 12:41:32;;;;;;;;;;;;;;;36.47;29.43;99369.34;5052153;28;838;-61
2021/07/15 12:44:12;;;;;;;;;;;;;;;36.41;28.44;99365.22;5052540;28;805;-60
2021/07/15 12:46:49;;;;;;;;;;;;;;;36.13;29.42;99364.44;5052505;28;916;-60
2021/07/15 12:49:16;;;;;;;;;;;;;;;36.20;29.00;99366.44;5052071;28;932;-61
2021/07/15 12:51:44;;;;;;;;;;;;;;;36.47;28.71;99357.84;5052096;28;877;-61
2021/07/15 12:54:15;;;;;;;;;;;;;;;36.50;27.67;99347.25;5051915;28;877;-60
2021/07/15 12:56:41;;;;;;;;;;;;;;;35.95;28.32;99350.03;5051931;28;1910;-61
2021/07/15 12:59:09;;;;;;;;;;;;;;;35.91;28.89;99361.19;5051913;28;873;-61
2021/07/15 13:01:39;;;;;;;;;;;;;;;35.96;28.48;99345.78;5052190;28;857;-61
2021/07/15 13:04:07;;;;;;;;;;;;;;;35.88;28.48;99350.13;5052432;28;747;-60
2021/07/15 13:06:36;;;;;;;;;;;;;;;36.00;27.96;99354.00;5051897;28;857;-60
2021/07/15 13:09:11;;;;;;;;;;;;;;;35.52;28.15;99360.78;5051743;28;854;-61
2021/07/15 13:14:32;;;;;;;;;;;;;;;35.76;28.69;99352.72;5051803;28;1261;-61
2021/07/15 13:16:58;;;;;;;;;;;;;;;36.07;28.74;99335.13;5051634;28;1973;-60
2021/07/15 13:19:25;;;;;;;;;;;;;;;35.95;28.14;99347.16;5051043;28;818;-61
2021/07/15 13:21:52;;;;;;;;;;;;;;;35.80;28.01;99352.31;5051582;28;870;-61
2021/07/15 13:24:26;;;;;;;;;;;;;;;35.42;28.45;99347.66;5051590;28;819;-61
2021/07/15 13:26:56;;;;;;;;;;;;;;;35.29;28.95;99361.00;5051376;28;898;-61
2021/07/15 13:29:29;;;;;;;;;;;;;;;35.51;28.89;99364.25;5033632;28;1481;-61